Time;durP1;ratioP1;P1;durP2;ratioP2;P2;SDS_P1;SDS_P2;PMS_P1;PMS_P2;Temp;Humidity;BMP_temperature;BMP_pressure;BME280_temperature;BME280_humidity;BME280_pressure;Samples;Min_cycle;Max_cycle;Signal;HPM_P1;HPM_P2
2024/03/13 00:02:02;;;;;;;16.63;7.38;;;6.40;99.90;;;;;;5101486;28;20089;-81
2024/03/13 00:04:34;;;;;;;15.23;6.97;;;6.40;99.90;;;;;;5087221;28;20142;-80
2024/03/13 00:07:00;;;;;;;12.73;6.50;;;6.50;99.90;;;;;;5101785;28;20037;-80
2024/03/13 00:09:26;;;;;;;9.75;5.43;;;6.50;99.90;;;;;;5091399;28;20040;-79
2024/03/13 00:11:52;;;;;;;14.68;6.57;;;6.50;99.90;;;;;;5089359;28;20487;-80
2024/03/13 00:14:18;;;;;;;13.07;6.95;;;6.50;99.90;;;;;;5105971;28;20055;-80
2024/03/13 00:16:44;;;;;;;9.27;5.63;;;6.50;99.90;;;;;;5084243;28;20036;-80
2024/03/13 00:19:10;;;;;;;13.27;6.47;;;6.60;99.90;;;;;;5090648;28;20028;-78
2024/03/13 00:21:36;;;;;;;9.35;5.22;;;6.60;99.90;;;;;;5091400;28;20050;-80
2024/03/13 00:24:02;;;;;;;13.63;6.47;;;6.70;99.90;;;;;;5090745;28;20111;-79
2024/03/13 00:26:29;;;;;;;18.00;6.88;;;6.70;99.90;;;;;;5086784;28;20536;-80
2024/03/13 00:28:55;;;;;;;13.38;6.70;;;6.70;99.90;;;;;;5088322;28;20036;-80
2024/03/13 00:31:21;;;;;;;14.50;6.32;;;6.70;99.90;;;;;;5087042;28;20485;-79
2024/03/13 00:33:46;;;;;;;14.68;7.60;;;6.80;99.90;;;;;;5088656;28;20040;-80
2024/03/13 00:36:12;;;;;;;14.00;6.55;;;6.80;99.90;;;;;;5090109;28;20118;-79
2024/03/13 00:38:38;;;;;;;14.90;7.22;;;6.80;99.90;;;;;;5103394;28;20043;-80
2024/03/13 00:41:04;;;;;;;15.02;6.55;;;6.80;99.90;;;;;;5088054;28;20399;-80
2024/03/13 00:43:32;;;;;;;16.00;6.22;;;6.90;99.90;;;;;;5087175;28;20044;-79
2024/03/13 00:45:59;;;;;;;10.88;6.22;;;6.90;99.90;;;;;;5085043;28;20044;-77
2024/03/13 00:48:31;;;;;;;11.85;5.65;;;6.90;99.90;;;;;;5105953;28;20491;-80
2024/03/13 00:51:00;;;;;;;22.30;8.68;;;6.90;99.90;;;;;;5091037;28;20036;-80
2024/03/13 00:53:27;;;;;;;13.63;6.88;;;7.00;99.90;;;;;;5069429;28;20036;-80
2024/03/13 00:55:54;;;;;;;11.02;5.65;;;7.00;99.90;;;;;;5087788;28;20041;-79
2024/03/13 00:58:21;;;;;;;11.77;6.53;;;7.00;99.90;;;;;;5070268;28;20549;-79
2024/03/13 01:00:48;;;;;;;14.10;4.25;;;6.90;99.90;;;;;;5105116;28;20055;-79
2024/03/13 01:03:14;;;;;;;12.00;5.68;;;7.00;99.90;;;;;;5088709;28;20142;-79
2024/03/13 01:05:43;;;;;;;17.88;6.68;;;7.00;99.90;;;;;;5088962;28;20148;-79
2024/03/13 01:08:09;;;;;;;14.52;6.80;;;7.00;99.90;;;;;;5090172;28;20043;-78
2024/03/13 01:10:35;;;;;;;16.90;6.13;;;7.00;99.90;;;;;;5086799;28;20033;-80
2024/03/13 01:13:00;;;;;;;14.52;6.65;;;7.10;99.90;;;;;;5088665;28;20028;-79
2024/03/13 01:15:27;;;;;;;12.70;6.53;;;7.00;99.90;;;;;;5086677;28;20048;-81
2024/03/13 01:17:53;;;;;;;11.63;6.55;;;7.00;99.90;;;;;;5088617;28;20120;-80
2024/03/13 01:20:19;;;;;;;13.00;7.65;;;7.10;99.90;;;;;;5071737;28;20042;-80
2024/03/13 01:22:48;;;;;;;12.10;6.20;;;7.10;99.90;;;;;;5072152;28;20054;-79
2024/03/13 01:25:14;;;;;;;11.70;4.88;;;7.10;99.90;;;;;;5085145;28;20039;-79
2024/03/13 01:27:43;;;;;;;10.48;5.47;;;7.10;99.90;;;;;;5068098;28;20128;-79
2024/03/13 01:30:11;;;;;;;10.73;4.75;;;7.10;99.90;;;;;;5106665;28;20036;-80
2024/03/13 01:32:38;;;;;;;12.40;4.47;;;7.10;99.90;;;;;;5072458;28;20104;-80
2024/03/13 01:35:04;;;;;;;10.50;5.07;;;7.10;99.90;;;;;;5103877;28;20114;-79
2024/03/13 01:40:19;;;;;;;9.30;4.60;;;7.20;99.90;;;;;;5099437;28;20101;-79
2024/03/13 01:56:59;;;;;;;10.45;6.15;;;7.30;99.90;;;;;;5088279;28;20044;-80
2024/03/13 01:59:48;;;;;;;7.53;4.10;;;7.30;99.90;;;;;;5084417;28;20044;-79
2024/03/13 02:02:22;;;;;;;10.98;5.90;;;7.30;99.90;;;;;;5087290;28;20036;-79
2024/03/13 02:04:50;;;;;;;7.72;4.25;;;7.40;99.90;;;;;;5068908;28;20044;-79
2024/03/13 02:07:18;;;;;;;7.40;4.63;;;7.40;99.90;;;;;;5087267;28;20395;-80
2024/03/13 02:09:48;;;;;;;9.43;5.20;;;7.40;99.90;;;;;;5104019;28;20067;-80
2024/03/13 02:12:14;;;;;;;9.48;5.40;;;7.40;99.90;;;;;;5087278;28;20115;-81
2024/03/13 02:14:39;;;;;;;9.75;4.45;;;7.50;99.90;;;;;;5088923;28;20445;-81
2024/03/13 02:17:08;;;;;;;12.43;5.75;;;7.50;99.90;;;;;;5105556;28;20097;-81
2024/03/13 02:19:38;;;;;;;11.43;4.53;;;7.50;99.90;;;;;;5079499;28;20515;-80
2024/03/13 02:22:05;;;;;;;9.43;4.68;;;7.50;99.90;;;;;;5088983;28;22012;-80
2024/03/13 02:24:33;;;;;;;7.38;4.35;;;7.50;99.90;;;;;;5088330;28;20123;-81
2024/03/13 02:27:00;;;;;;;11.75;5.63;;;7.50;99.90;;;;;;5085981;28;20050;-81
2024/03/13 02:29:26;;;;;;;12.00;4.68;;;7.50;99.90;;;;;;5088449;28;20563;-79
2024/03/13 02:31:52;;;;;;;10.18;5.03;;;7.50;99.90;;;;;;5064237;28;20107;-80
2024/03/13 02:34:18;;;;;;;14.32;5.50;;;7.50;99.90;;;;;;5089763;28;20101;-80
2024/03/13 02:36:46;;;;;;;8.02;4.72;;;7.50;99.90;;;;;;5087711;28;20032;-81
2024/03/13 02:39:18;;;;;;;11.00;5.10;;;7.60;99.90;;;;;;5089214;28;20104;-81
2024/03/13 02:41:44;;;;;;;11.43;4.65;;;7.60;99.90;;;;;;5094639;28;20032;-80
2024/03/13 02:44:10;;;;;;;7.38;4.88;;;7.60;99.90;;;;;;5105835;28;20570;-79
2024/03/13 02:46:37;;;;;;;9.80;4.65;;;7.70;99.90;;;;;;5086357;28;20127;-80
2024/03/13 02:49:02;;;;;;;7.57;4.55;;;7.70;99.90;;;;;;5087489;28;20131;-80
2024/03/13 02:51:28;;;;;;;10.77;5.10;;;7.70;99.90;;;;;;5084499;28;20275;-80
2024/03/13 02:53:54;;;;;;;8.88;4.60;;;7.70;99.90;;;;;;5086479;28;20542;-80
2024/03/13 02:56:20;;;;;;;6.65;4.40;;;7.70;99.90;;;;;;5083970;28;20051;-81
2024/03/13 02:58:48;;;;;;;12.98;5.20;;;7.70;99.90;;;;;;5089134;28;20060;-80
2024/03/13 03:01:13;;;;;;;11.57;4.88;;;7.70;99.90;;;;;;5084495;28;20074;-80
2024/03/13 03:03:39;;;;;;;8.50;3.88;;;7.70;99.90;;;;;;5088208;28;20074;-81
2024/03/13 03:06:06;;;;;;;9.65;4.55;;;7.70;99.90;;;;;;5084732;28;20042;-80
2024/03/13 03:08:33;;;;;;;9.38;4.88;;;7.70;99.90;;;;;;5075579;28;20040;-79
2024/03/13 03:11:03;;;;;;;10.35;4.32;;;7.70;99.90;;;;;;5086217;28;20040;-81
2024/03/13 03:13:29;;;;;;;12.98;5.85;;;7.70;99.90;;;;;;5083148;28;20055;-81
2024/03/13 03:15:55;;;;;;;8.80;4.82;;;7.70;99.90;;;;;;5085957;28;20084;-81
2024/03/13 03:18:20;;;;;;;7.60;4.82;;;7.70;99.90;;;;;;5084221;28;20218;-80
2024/03/13 03:20:46;;;;;;;17.90;4.53;;;7.70;99.90;;;;;;5071667;28;20495;-81
2024/03/13 03:23:13;;;;;;;9.00;4.57;;;7.80;99.90;;;;;;5082521;28;20092;-81
2024/03/13 03:25:39;;;;;;;6.70;4.05;;;7.80;99.90;;;;;;5103233;28;20055;-81
2024/03/13 03:28:05;;;;;;;9.93;4.80;;;7.80;99.90;;;;;;5082606;28;20446;-81
2024/03/13 03:30:31;;;;;;;9.07;4.03;;;7.80;99.90;;;;;;5088252;28;20065;-82
2024/03/13 03:32:58;;;;;;;12.30;5.55;;;7.80;99.90;;;;;;5079608;28;20510;-81
2024/03/13 03:35:24;;;;;;;12.10;4.25;;;7.80;99.90;;;;;;5086050;28;20490;-81
2024/03/13 03:37:51;;;;;;;10.18;4.85;;;7.80;99.90;;;;;;5087133;28;20407;-82
2024/03/13 03:40:17;;;;;;;9.57;5.13;;;7.80;99.90;;;;;;5085873;28;20565;-82
2024/03/13 03:42:43;;;;;;;6.43;2.83;;;7.80;99.90;;;;;;5085546;28;20046;-81
2024/03/13 03:45:09;;;;;;;9.32;4.07;;;7.70;99.90;;;;;;5087098;28;20036;-82
2024/03/13 03:47:39;;;;;;;10.88;5.35;;;7.70;99.90;;;;;;5069193;28;20032;-82
2024/03/13 03:50:07;;;;;;;8.18;3.63;;;7.80;99.90;;;;;;5086821;28;20105;-82
2024/03/13 03:52:34;;;;;;;10.02;4.53;;;7.70;99.90;;;;;;5086506;28;20041;-82
2024/03/13 03:55:00;;;;;;;9.05;4.80;;;7.80;99.90;;;;;;5086771;28;20535;-81
2024/03/13 03:57:25;;;;;;;11.50;5.13;;;7.80;99.90;;;;;;5085050;28;20052;-81
2024/03/13 03:59:51;;;;;;;9.75;4.90;;;7.70;99.90;;;;;;5070260;28;20075;-82
2024/03/13 04:02:17;;;;;;;12.60;4.88;;;7.70;99.90;;;;;;5088669;28;20081;-82
2024/03/13 04:04:43;;;;;;;8.88;4.75;;;7.70;99.90;;;;;;5084788;28;20407;-82
2024/03/13 04:07:13;;;;;;;8.18;4.25;;;7.70;99.90;;;;;;5092202;28;20127;-82
2024/03/13 04:09:39;;;;;;;10.15;5.15;;;7.70;99.90;;;;;;5086698;28;20056;-82
2024/03/13 04:12:05;;;;;;;8.63;4.22;;;7.70;99.90;;;;;;5105639;28;20066;-82
2024/03/13 04:14:31;;;;;;;9.80;4.72;;;7.70;99.90;;;;;;5093460;28;20432;-81
2024/03/13 04:16:57;;;;;;;11.02;4.63;;;7.70;99.90;;;;;;5090507;28;20040;-81
2024/03/13 04:19:23;;;;;;;7.55;3.72;;;7.70;99.90;;;;;;5074528;28;20058;-81
2024/03/13 04:21:48;;;;;;;14.18;4.57;;;7.70;99.90;;;;;;5090827;28;20100;-80
2024/03/13 04:24:15;;;;;;;11.52;4.40;;;7.70;99.90;;;;;;5087661;28;20055;-80
2024/03/13 04:26:40;;;;;;;8.63;4.32;;;7.70;99.90;;;;;;5090462;28;20493;-80
2024/03/13 04:29:07;;;;;;;10.23;4.75;;;7.70;99.90;;;;;;5089022;28;20117;-81
2024/03/13 04:31:37;;;;;;;6.72;3.30;;;7.70;99.90;;;;;;5089764;28;20126;-81
2024/03/13 04:34:04;;;;;;;7.70;3.70;;;7.70;99.90;;;;;;5090767;28;20078;-82
2024/03/13 04:36:33;;;;;;;11.80;4.75;;;7.70;99.90;;;;;;5075448;28;20478;-80
2024/03/13 04:38:59;;;;;;;9.52;5.30;;;7.70;99.90;;;;;;5074024;28;20039;-81
2024/03/13 04:41:25;;;;;;;10.48;4.20;;;7.70;99.90;;;;;;5088637;28;20044;-81
2024/03/13 04:43:51;;;;;;;8.23;4.47;;;7.70;99.90;;;;;;5090456;28;20028;-82
2024/03/13 04:46:17;;;;;;;7.40;4.55;;;7.70;99.90;;;;;;5106265;28;20092;-81
2024/03/13 04:48:45;;;;;;;11.68;4.72;;;7.70;99.90;;;;;;5070898;28;20040;-81
2024/03/13 04:51:14;;;;;;;10.52;5.65;;;7.80;99.90;;;;;;5089203;28;20043;-79
2024/03/13 04:53:39;;;;;;;9.07;5.22;;;7.80;99.90;;;;;;5089681;28;20075;-82
2024/03/13 04:56:06;;;;;;;6.45;4.07;;;7.80;99.90;;;;;;5087434;28;20067;-81
2024/03/13 04:58:34;;;;;;;14.43;4.47;;;7.80;99.90;;;;;;5091049;28;20128;-82
2024/03/13 05:00:59;;;;;;;12.13;5.22;;;7.80;99.90;;;;;;5087959;28;20054;-82
2024/03/13 05:03:25;;;;;;;7.90;3.90;;;7.80;99.90;;;;;;5089447;28;20040;-82
2024/03/13 05:05:51;;;;;;;18.05;5.25;;;7.80;99.90;;;;;;5088080;28;20047;-81
2024/03/13 05:08:17;;;;;;;12.45;4.35;;;7.80;99.90;;;;;;5090501;28;20130;-81
2024/03/13 05:10:43;;;;;;;9.60;5.35;;;7.80;99.90;;;;;;5085725;28;20109;-82
2024/03/13 05:13:09;;;;;;;7.75;4.47;;;7.80;99.90;;;;;;5090931;28;20066;-82
2024/03/13 05:15:35;;;;;;;8.82;5.32;;;7.80;99.90;;;;;;5087191;28;20398;-84
2024/03/13 05:18:01;;;;;;;10.75;5.10;;;7.80;99.90;;;;;;5089671;28;20043;-81
2024/03/13 05:20:28;;;;;;;9.95;5.43;;;7.80;99.90;;;;;;5087506;28;20039;-82
2024/03/13 05:22:54;;;;;;;11.50;3.90;;;7.80;99.90;;;;;;5089885;28;20054;-82
2024/03/13 05:25:22;;;;;;;13.48;4.60;;;7.80;99.90;;;;;;5068128;28;20423;-82
2024/03/13 05:27:51;;;;;;;8.70;4.78;;;7.80;99.90;;;;;;5089942;28;20084;-82
2024/03/13 05:30:17;;;;;;;13.68;5.45;;;7.80;99.90;;;;;;5092000;28;20044;-82
2024/03/13 05:32:43;;;;;;;11.30;3.78;;;7.80;99.90;;;;;;5090433;28;20040;-82
2024/03/13 05:35:09;;;;;;;6.65;3.42;;;7.80;99.90;;;;;;5091467;28;20032;-82
2024/03/13 05:37:35;;;;;;;7.93;4.25;;;7.80;99.90;;;;;;5089437;28;20131;-82
2024/03/13 05:40:07;;;;;;;10.60;5.05;;;7.80;99.90;;;;;;5085273;28;20218;-82
2024/03/13 05:42:33;;;;;;;9.15;4.20;;;7.90;99.90;;;;;;5070338;28;20047;-82
2024/03/13 05:44:58;;;;;;;15.35;4.78;;;7.90;99.90;;;;;;5105883;28;20411;-81
2024/03/13 05:47:25;;;;;;;13.30;5.00;;;7.90;99.90;;;;;;5089052;28;20048;-82
2024/03/13 05:49:51;;;;;;;9.20;3.55;;;7.90;99.90;;;;;;5087430;28;20036;-82
2024/03/13 05:52:17;;;;;;;7.35;3.78;;;7.90;99.90;;;;;;5072747;28;20135;-82
2024/03/13 05:54:43;;;;;;;6.47;3.28;;;7.90;99.90;;;;;;5090752;28;20404;-82
2024/03/13 05:57:09;;;;;;;10.90;3.97;;;7.90;99.90;;;;;;5087571;28;20036;-83
2024/03/13 05:59:34;;;;;;;5.95;3.17;;;7.90;99.90;;;;;;5070734;28;20044;-83
2024/03/13 06:02:00;;;;;;;6.13;4.00;;;7.90;99.90;;;;;;5088990;28;20392;-82
2024/03/13 06:04:26;;;;;;;6.60;4.20;;;8.00;99.90;;;;;;5088144;28;20028;-82
2024/03/13 06:06:52;;;;;;;7.22;3.42;;;8.00;99.90;;;;;;5087458;28;20105;-83
2024/03/13 06:09:18;;;;;;;8.95;4.57;;;8.00;99.90;;;;;;5086430;28;20530;-82
2024/03/13 06:11:43;;;;;;;8.00;3.92;;;8.00;99.90;;;;;;5072437;28;20169;-83
2024/03/13 06:14:09;;;;;;;6.55;3.35;;;8.00;99.90;;;;;;5069501;28;20031;-81
2024/03/13 06:16:35;;;;;;;4.60;2.80;;;8.00;99.90;;;;;;5087991;28;20035;-83
2024/03/13 06:19:01;;;;;;;7.05;2.88;;;8.10;99.90;;;;;;5103639;28;20109;-83
2024/03/13 06:21:27;;;;;;;6.00;3.83;;;8.10;99.90;;;;;;5090777;28;20040;-84
2024/03/13 06:23:58;;;;;;;9.00;4.28;;;8.10;99.90;;;;;;5082625;28;20040;-82
2024/03/13 06:26:24;;;;;;;8.50;4.38;;;8.10;99.90;;;;;;5083914;28;20040;-83
2024/03/13 06:31:40;;;;;;;9.63;3.90;;;8.20;99.90;;;;;;5089415;28;20543;-83
2024/03/13 06:34:09;;;;;;;7.65;3.03;;;8.20;99.90;;;;;;5068341;28;20399;-83
2024/03/13 06:36:39;;;;;;;9.23;3.72;;;8.20;99.90;;;;;;5085610;28;20110;-81
2024/03/13 06:39:09;;;;;;;7.80;3.55;;;8.20;99.90;;;;;;5106026;28;20043;-83
2024/03/13 06:41:35;;;;;;;5.78;2.85;;;8.30;99.90;;;;;;5054317;28;20530;-81
2024/03/13 06:44:05;;;;;;;10.15;2.78;;;8.30;99.90;;;;;;5069746;28;20083;-82
2024/03/13 06:46:33;;;;;;;6.68;3.47;;;8.30;99.90;;;;;;5089333;28;20047;-82
2024/03/13 06:48:59;;;;;;;6.88;3.28;;;8.30;99.90;;;;;;5069919;28;20036;-81
2024/03/13 06:51:24;;;;;;;6.07;3.70;;;8.40;99.90;;;;;;5087252;28;20407;-83
2024/03/13 06:53:50;;;;;;;5.82;3.70;;;8.40;99.90;;;;;;5089036;28;20039;-83
2024/03/13 06:56:16;;;;;;;5.47;2.95;;;8.40;99.90;;;;;;5086799;28;20031;-83
2024/03/13 06:58:42;;;;;;;8.13;3.30;;;8.50;99.90;;;;;;5071005;28;20480;-83
2024/03/13 07:01:14;;;;;;;7.55;3.85;;;8.50;99.90;;;;;;5086450;28;20101;-83
2024/03/13 07:03:41;;;;;;;6.43;3.03;;;8.50;99.90;;;;;;5096222;28;20044;-83
2024/03/13 07:06:10;;;;;;;6.60;2.58;;;8.50;99.90;;;;;;5083749;28;20037;-83
2024/03/13 07:08:36;;;;;;;6.72;4.00;;;8.50;99.90;;;;;;5089288;28;20036;-83
2024/03/13 07:11:08;;;;;;;7.60;2.58;;;8.60;99.90;;;;;;5068187;28;20408;-84
2024/03/13 07:13:34;;;;;;;9.15;4.70;;;8.60;99.90;;;;;;5087944;28;20036;-84
2024/03/13 07:16:00;;;;;;;6.55;3.03;;;8.60;99.90;;;;;;5071365;28;20036;-83
2024/03/13 07:18:31;;;;;;;4.22;2.85;;;8.60;99.90;;;;;;5070479;28;20040;-82
2024/03/13 07:20:58;;;;;;;7.50;3.25;;;8.60;99.90;;;;;;5086740;28;20071;-83
2024/03/13 07:23:25;;;;;;;7.45;3.70;;;8.70;99.90;;;;;;5074754;28;20040;-79
2024/03/13 07:25:53;;;;;;;7.03;3.40;;;8.70;99.90;;;;;;5087297;28;20472;-80
2024/03/13 07:28:20;;;;;;;5.57;2.97;;;8.80;99.90;;;;;;5104052;28;20137;-83
2024/03/13 07:30:47;;;;;;;7.57;3.95;;;8.80;99.90;;;;;;5068892;28;20039;-82
2024/03/13 07:33:16;;;;;;;10.73;3.33;;;8.80;99.90;;;;;;5101751;28;20093;-84
2024/03/13 07:35:42;;;;;;;6.50;3.33;;;8.90;99.90;;;;;;5089285;28;20035;-83
2024/03/13 07:38:11;;;;;;;3.47;2.42;;;9.00;99.90;;;;;;5080830;28;20040;-82
2024/03/13 07:40:38;;;;;;;11.98;3.78;;;9.00;99.90;;;;;;5089189;28;20123;-82
2024/03/13 07:43:10;;;;;;;11.30;4.20;;;9.00;99.90;;;;;;5096766;28;20086;-83
2024/03/13 07:45:37;;;;;;;4.10;2.22;;;9.00;99.90;;;;;;5091421;28;20040;-83
2024/03/13 07:48:07;;;;;;;6.45;3.13;;;9.10;99.90;;;;;;5077021;28;20123;-82
2024/03/13 07:50:34;;;;;;;8.48;4.03;;;9.10;99.90;;;;;;5094083;28;20046;-83
2024/03/13 07:53:02;;;;;;;6.47;3.42;;;9.10;99.90;;;;;;5094784;28;20043;-83
2024/03/13 07:55:28;;;;;;;5.65;3.58;;;9.20;99.90;;;;;;5077498;28;20149;-83
2024/03/13 07:57:54;;;;;;;7.60;3.80;;;9.20;99.90;;;;;;5094169;28;20056;-83
2024/03/13 08:00:22;;;;;;;5.95;3.05;;;9.30;99.90;;;;;;5096662;28;20415;-83
2024/03/13 08:02:48;;;;;;;8.52;4.05;;;9.30;99.90;;;;;;5094005;28;20044;-82
2024/03/13 08:05:16;;;;;;;7.35;2.80;;;9.40;99.90;;;;;;5096452;28;20036;-82
2024/03/13 08:07:45;;;;;;;5.13;2.85;;;9.40;99.90;;;;;;5075251;28;20052;-82
2024/03/13 08:10:15;;;;;;;5.22;2.53;;;9.40;99.90;;;;;;5081314;28;20472;-81
2024/03/13 08:12:42;;;;;;;3.97;2.03;;;9.50;99.90;;;;;;5098393;28;20040;-82
2024/03/13 08:15:08;;;;;;;4.97;2.50;;;9.50;99.90;;;;;;5108643;28;20040;-82
2024/03/13 08:17:35;;;;;;;3.65;2.33;;;9.60;99.90;;;;;;5092871;28;20115;-82
2024/03/13 08:20:01;;;;;;;3.28;1.92;;;9.60;99.90;;;;;;5120777;28;20040;-82
2024/03/13 08:22:27;;;;;;;5.20;2.13;;;9.70;99.90;;;;;;5100263;28;20491;-82
2024/03/13 08:24:52;;;;;;;4.80;2.47;;;9.70;99.90;;;;;;5095298;28;20182;-82
2024/03/13 08:27:19;;;;;;;4.93;2.22;;;9.70;99.90;;;;;;5100319;28;20036;-81
2024/03/13 08:29:44;;;;;;;5.40;2.58;;;9.90;99.90;;;;;;5110233;28;20032;-82
2024/03/13 08:32:11;;;;;;;4.35;2.13;;;9.90;99.90;;;;;;5099208;28;20035;-81
2024/03/13 08:34:38;;;;;;;3.40;2.10;;;10.00;99.90;;;;;;5096464;28;20135;-83
2024/03/13 08:37:03;;;;;;;5.15;2.72;;;10.00;99.90;;;;;;5089794;28;20035;-84
2024/03/13 08:39:30;;;;;;;3.28;1.60;;;10.00;99.90;;;;;;5097720;28;20032;-83
2024/03/13 08:41:55;;;;;;;5.40;2.08;;;10.10;99.90;;;;;;5070591;28;20032;-85
2024/03/13 08:44:21;;;;;;;4.15;2.47;;;10.10;99.90;;;;;;5071486;28;20039;-84
2024/03/13 08:46:50;;;;;;;3.55;1.85;;;10.10;99.90;;;;;;5074736;28;20591;-83
2024/03/13 08:49:16;;;;;;;7.60;2.50;;;10.20;99.90;;;;;;5070175;28;20095;-84
2024/03/13 08:51:42;;;;;;;3.78;2.05;;;10.20;99.90;;;;;;5089602;28;20500;-84
2024/03/13 08:54:11;;;;;;;3.80;1.80;;;10.20;99.90;;;;;;5088337;28;20059;-83
2024/03/13 08:56:39;;;;;;;3.38;1.77;;;10.20;99.90;;;;;;5089388;28;20051;-84
2024/03/13 08:59:05;;;;;;;2.80;1.67;;;10.30;99.90;;;;;;5088988;28;20504;-84
2024/03/13 09:01:38;;;;;;;5.85;2.05;;;10.30;99.90;;;;;;5074456;28;20059;-84
2024/03/13 09:04:04;;;;;;;5.03;2.25;;;10.30;99.90;;;;;;5087266;28;20044;-83
2024/03/13 09:06:30;;;;;;;5.25;2.78;;;10.30;99.90;;;;;;5108814;28;20476;-83
2024/03/13 09:08:56;;;;;;;4.70;2.03;;;10.40;99.90;;;;;;5072350;28;20032;-84
2024/03/13 09:11:22;;;;;;;5.43;2.40;;;10.40;99.90;;;;;;5100783;28;20115;-83
2024/03/13 09:13:47;;;;;;;4.05;1.98;;;10.40;99.90;;;;;;5091906;28;20069;-84
2024/03/13 09:16:16;;;;;;;6.40;2.28;;;10.40;99.90;;;;;;5073005;28;20097;-83
2024/03/13 09:18:42;;;;;;;6.60;2.53;;;10.50;99.90;;;;;;5091504;28;20111;-84
2024/03/13 09:21:08;;;;;;;3.80;1.95;;;10.50;99.90;;;;;;5089657;28;20052;-83
2024/03/13 09:23:33;;;;;;;5.40;3.00;;;10.50;99.90;;;;;;5072607;28;20190;-84
2024/03/13 09:25:59;;;;;;;9.00;2.67;;;10.50;99.90;;;;;;5070715;28;20039;-84
2024/03/13 09:28:27;;;;;;;4.15;2.55;;;10.60;99.90;;;;;;5071590;28;20101;-84
2024/03/13 09:30:53;;;;;;;5.97;2.38;;;10.70;99.90;;;;;;5073809;28;20651;-85
2024/03/13 09:33:18;;;;;;;3.70;2.22;;;10.70;99.90;;;;;;5089747;28;20043;-84
2024/03/13 09:35:44;;;;;;;3.95;2.58;;;10.70;99.90;;;;;;5074700;28;20044;-84
2024/03/13 09:38:12;;;;;;;7.05;2.58;;;10.80;99.90;;;;;;5091787;28;20040;-85
2024/03/13 09:40:39;;;;;;;7.13;3.13;;;10.80;99.90;;;;;;5088935;28;20111;-84
2024/03/13 09:43:07;;;;;;;3.40;2.08;;;10.80;99.90;;;;;;5092084;28;20047;-84
2024/03/13 09:45:35;;;;;;;4.72;2.33;;;10.80;99.90;;;;;;5088013;28;20043;-83
2024/03/13 09:48:03;;;;;;;4.25;2.33;;;10.90;99.90;;;;;;5089603;28;20045;-84
2024/03/13 09:50:30;;;;;;;4.45;2.03;;;11.00;99.90;;;;;;5088300;28;20043;-84
2024/03/13 09:52:58;;;;;;;6.72;3.00;;;11.00;99.90;;;;;;5090877;28;20601;-85
2024/03/13 09:55:25;;;;;;;5.85;2.35;;;11.00;99.90;;;;;;5089140;28;20136;-84
2024/03/13 09:57:51;;;;;;;5.60;2.50;;;11.10;99.90;;;;;;5089109;28;20643;-84
2024/03/13 10:00:20;;;;;;;4.10;2.53;;;11.10;99.90;;;;;;5067971;28;20067;-84
2024/03/13 10:02:50;;;;;;;7.07;3.03;;;11.20;99.90;;;;;;5090032;28;20089;-84
2024/03/13 10:05:19;;;;;;;10.85;3.28;;;11.30;99.90;;;;;;5087911;28;20440;-85
2024/03/13 10:07:49;;;;;;;7.50;2.55;;;11.30;99.90;;;;;;5090649;28;20095;-83
2024/03/13 10:10:24;;;;;;;6.53;2.53;;;11.40;99.90;;;;;;5088991;28;20482;-84
2024/03/13 10:12:50;;;;;;;5.38;2.88;;;11.40;99.90;;;;;;5088694;28;20036;-84
2024/03/13 10:15:18;;;;;;;6.80;3.15;;;11.50;99.90;;;;;;5089873;28;20040;-84
2024/03/13 10:18:05;;;;;;;4.60;2.08;;;11.50;99.90;;;;;;5086909;28;20177;-84
2024/03/13 10:21:02;;;;;;;4.75;2.38;;;11.60;99.90;;;;;;5103676;28;20040;-83
2024/03/13 10:23:30;;;;;;;6.88;2.85;;;11.60;99.90;;;;;;5081200;28;20056;-84
2024/03/13 10:25:59;;;;;;;4.80;2.65;;;11.60;99.90;;;;;;5068694;28;20032;-84
2024/03/13 10:28:26;;;;;;;2.58;1.75;;;11.60;99.90;;;;;;5088770;28;20047;-83
2024/03/13 10:30:54;;;;;;;3.35;1.98;;;11.60;99.90;;;;;;5085585;28;20051;-84
2024/03/13 10:33:22;;;;;;;3.13;1.83;;;11.60;99.90;;;;;;5069177;28;20121;-83
2024/03/13 10:35:48;;;;;;;2.22;1.67;;;11.60;99.90;;;;;;5088925;28;20032;-83
2024/03/13 10:38:14;;;;;;;2.90;1.73;;;11.70;99.90;;;;;;5072815;28;20043;-84
2024/03/13 10:40:41;;;;;;;5.30;1.80;;;11.70;99.90;;;;;;5088171;28;20040;-85
2024/03/13 10:43:10;;;;;;;3.25;1.92;;;11.70;99.90;;;;;;5086589;28;20121;-85
2024/03/13 10:45:39;;;;;;;5.28;2.03;;;11.70;99.90;;;;;;5087352;28;20063;-84
2024/03/13 10:48:11;;;;;;;4.20;1.90;;;11.70;99.90;;;;;;5091105;28;20392;-84
2024/03/13 10:50:37;;;;;;;4.05;2.13;;;11.70;99.90;;;;;;5103675;28;20044;-84
2024/03/13 10:53:05;;;;;;;6.32;2.28;;;11.80;99.90;;;;;;5081050;28;20483;-84
2024/03/13 10:55:31;;;;;;;5.68;2.40;;;11.80;99.90;;;;;;5090779;28;20036;-84
2024/03/13 10:58:00;;;;;;;8.68;2.78;;;11.90;99.90;;;;;;5070281;28;20056;-84
2024/03/13 11:00:30;;;;;;;7.78;2.67;;;11.90;99.90;;;;;;5087149;28;20039;-84
2024/03/13 11:02:58;;;;;;;4.13;2.08;;;11.90;99.90;;;;;;5089704;28;20036;-84
2024/03/13 11:05:25;;;;;;;4.55;2.13;;;11.90;99.90;;;;;;5072424;28;20047;-85
2024/03/13 11:07:52;;;;;;;4.63;2.30;;;12.00;99.90;;;;;;5086675;28;20040;-84
2024/03/13 11:10:21;;;;;;;7.15;2.38;;;11.90;99.90;;;;;;5088478;28;20076;-85
2024/03/13 11:12:50;;;;;;;3.88;2.45;;;11.90;99.90;;;;;;5090721;28;20071;-85
2024/03/13 11:15:24;;;;;;;4.50;3.25;;;11.90;99.90;;;;;;5075029;28;20039;-84
2024/03/13 11:17:56;;;;;;;4.65;2.40;;;11.90;99.90;;;;;;5091454;28;20399;-84
2024/03/13 11:20:25;;;;;;;7.93;2.03;;;12.00;99.90;;;;;;5090160;28;20464;-85
2024/03/13 11:23:03;;;;;;;6.65;2.45;;;12.00;99.90;;;;;;5074002;28;20036;-85
2024/03/13 11:25:30;;;;;;;5.43;2.28;;;12.00;99.90;;;;;;5068615;28;20784;-85
2024/03/13 11:28:02;;;;;;;6.20;2.80;;;12.00;99.90;;;;;;5088146;28;20522;-85
2024/03/13 11:30:29;;;;;;;7.60;2.60;;;12.00;99.90;;;;;;5090656;28;20093;-83
2024/03/13 11:32:59;;;;;;;7.25;2.92;;;12.00;99.90;;;;;;5073791;28;20036;-85
2024/03/13 11:35:26;;;;;;;5.72;2.45;;;12.00;99.90;;;;;;5085017;28;20121;-85
2024/03/13 11:37:54;;;;;;;8.40;3.15;;;12.00;99.90;;;;;;5073145;28;20046;-85
2024/03/13 11:40:20;;;;;;;5.65;3.17;;;12.00;99.90;;;;;;5107661;28;20047;-84
2024/03/13 11:42:47;;;;;;;6.75;3.08;;;12.10;99.90;;;;;;5088630;28;20471;-86
2024/03/13 11:45:22;;;;;;;9.00;3.42;;;12.10;99.90;;;;;;5071582;28;20048;-84
2024/03/13 11:47:56;;;;;;;5.97;3.30;;;12.10;99.90;;;;;;5089487;28;20404;-82
2024/03/13 11:50:23;;;;;;;;;;;12.10;99.90;;;;;;5090301;28;20076;-85
2024/03/13 11:52:58;;;;;;;7.90;3.10;;;12.20;99.90;;;;;;5090899;28;19967;-84
2024/03/13 11:55:30;;;;;;;5.57;2.95;;;12.20;99.90;;;;;;5089462;28;20037;-84
2024/03/13 11:58:31;;;;;;;9.07;3.67;;;12.30;99.90;;;;;;5100081;28;20055;-85
2024/03/13 12:00:57;;;;;;;10.55;4.45;;;12.30;99.90;;;;;;5047705;28;20047;-85
2024/03/13 12:03:47;;;;;;;10.75;3.30;;;12.30;99.90;;;;;;5088443;28;20047;-84
2024/03/13 12:06:19;;;;;;;4.82;2.80;;;12.30;99.90;;;;;;5089769;28;20040;-84
2024/03/13 12:08:45;;;;;;;8.88;2.70;;;12.30;99.90;;;;;;5096115;28;20075;-85
2024/03/13 12:11:21;;;;;;;6.20;2.83;;;12.30;99.90;;;;;;5088071;28;20113;-84
2024/03/13 12:13:47;;;;;;;4.85;2.22;;;12.30;99.90;;;;;;5097040;28;20058;-83
2024/03/13 12:16:15;;;;;;;5.32;3.13;;;12.30;99.90;;;;;;5090314;28;20399;-85
2024/03/13 12:18:53;;;;;;;6.32;2.13;;;12.30;99.90;;;;;;5089780;28;20036;-84
2024/03/13 12:21:20;;;;;;;13.82;2.95;;;12.30;99.90;;;;;;5090508;28;20395;-83
2024/03/13 12:23:47;;;;;;;4.70;3.05;;;12.30;99.90;;;;;;5087754;28;20036;-85
2024/03/13 12:26:13;;;;;;;4.03;2.20;;;12.40;99.90;;;;;;5084580;28;20047;-84
2024/03/13 12:28:39;;;;;;;7.05;2.95;;;12.40;99.90;;;;;;5070691;28;20079;-84
2024/03/13 12:31:06;;;;;;;7.22;3.30;;;12.40;99.90;;;;;;5087168;28;20071;-84
2024/03/13 12:33:36;;;;;;;10.95;2.92;;;12.40;99.90;;;;;;5088577;28;20036;-84
2024/03/13 12:36:06;;;;;;;12.60;3.17;;;12.40;99.90;;;;;;5071663;28;20043;-85
2024/03/13 12:38:36;;;;;;;3.20;2.00;;;12.40;99.90;;;;;;5106170;28;20052;-85
2024/03/13 12:41:02;;;;;;;8.73;2.80;;;12.40;99.90;;;;;;5070260;28;20114;-85
2024/03/13 12:43:28;;;;;;;6.15;4.20;;;12.40;99.90;;;;;;5091801;28;20032;-85
2024/03/13 12:45:54;;;;;;;3.92;2.50;;;12.40;99.90;;;;;;5073033;28;20040;-85
2024/03/13 12:48:20;;;;;;;7.10;2.20;;;12.50;99.90;;;;;;5090339;28;20051;-83
2024/03/13 12:50:46;;;;;;;5.85;2.85;;;12.50;99.90;;;;;;5083364;28;20499;-85
2024/03/13 12:53:12;;;;;;;4.75;1.83;;;12.60;99.90;;;;;;5088929;28;20162;-83
2024/03/13 12:55:38;;;;;;;6.13;2.55;;;12.60;99.90;;;;;;5083661;28;20420;-85
2024/03/13 12:58:08;;;;;;;13.13;2.20;;;12.70;99.90;;;;;;5073438;28;20060;-85
2024/03/13 13:00:36;;;;;;;10.23;2.38;;;12.70;99.90;;;;;;5083611;28;20103;-85
2024/03/13 13:03:04;;;;;;;6.68;2.38;;;12.70;99.90;;;;;;5089799;28;20067;-85
2024/03/13 13:05:30;;;;;;;10.02;2.83;;;12.70;99.90;;;;;;5085755;28;20046;-83
2024/03/13 13:07:58;;;;;;;2.50;1.42;;;12.80;99.90;;;;;;5087208;28;20077;-83
2024/03/13 13:10:26;;;;;;;6.55;1.98;;;12.70;99.90;;;;;;5087720;28;20126;-85
2024/03/13 13:12:52;;;;;;;3.35;2.28;;;12.80;99.90;;;;;;5085440;28;20070;-84